Terminal Aerodrome Forecast
Issued by NWS Charleston, WV

Current Version | Previous Version | Graphics & Text | Print | Product List | Glossary On
Versions: 1 2 3 4 5 6 7 8 9 10 11 12 13 14 15 16 17 18 19 20 21 22 23 24
000
FTUS41 KRLX 272300
TAFEKN
TAF
KEKN 272320Z 2800/2824 00000KT P6SM SCT200
     FM280600 00000KT 5SM BR SCT200
     FM280800 00000KT 1SM BR BKN001
     FM280900 00000KT 1/4SM FG VV001
     FM281300 00000KT 4SM BR SCT200
     FM281400 00000KT P6SM SCT200
     FM281600 VRB03KT P6SM FEW045=

USA.gov is the U.S. government's official web portal to all federal, state and local government web resources and services.